sensor_id;sensor_type;location;lat;lon;timestamp;pressure;altitude;pressure_sealevel;temperature;humidity
12594;BME280;6362;50.208;9.182;2022-08-19T00:00:10;99428.91;;;18.88;100.00
12594;BME280;6362;50.208;9.182;2022-08-19T00:02:36;99418.72;;;18.83;100.00
12594;BME280;6362;50.208;9.182;2022-08-19T00:05:02;99420.41;;;18.84;100.00
12594;BME280;6362;50.208;9.182;2022-08-19T00:07:28;99416.91;;;18.87;100.00
12594;BME280;6362;50.208;9.182;2022-08-19T00:09:53;99433.19;;;18.89;100.00
12594;BME280;6362;50.208;9.182;2022-08-19T00:12:19;99426.22;;;18.91;100.00
12594;BME280;6362;50.208;9.182;2022-08-19T00:14:45;99422.81;;;18.90;100.00
12594;BME280;6362;50.208;9.182;2022-08-19T00:17:11;99425.41;;;18.89;100.00
12594;BME280;6362;50.208;9.182;2022-08-19T00:19:37;99425.56;;;18.84;100.00
12594;BME280;6362;50.208;9.182;2022-08-19T00:22:03;99424.00;;;18.80;100.00
12594;BME280;6362;50.208;9.182;2022-08-19T00:24:31;99428.28;;;18.80;100.00
12594;BME280;6362;50.208;9.182;2022-08-19T00:26:57;99422.28;;;18.79;100.00
12594;BME280;6362;50.208;9.182;2022-08-19T00:29:24;99416.28;;;18.79;100.00
12594;BME280;6362;50.208;9.182;2022-08-19T00:31:51;99410.16;;;18.81;100.00
12594;BME280;6362;50.208;9.182;2022-08-19T00:34:20;99405.84;;;18.82;100.00
12594;BME280;6362;50.208;9.182;2022-08-19T00:36:47;99398.16;;;18.80;100.00
12594;BME280;6362;50.208;9.182;2022-08-19T00:39:13;99401.50;;;18.82;100.00
12594;BME280;6362;50.208;9.182;2022-08-19T00:41:40;99403.31;;;18.80;100.00
12594;BME280;6362;50.208;9.182;2022-08-19T00:44:11;99401.59;;;18.79;100.00
12594;BME280;6362;50.208;9.182;2022-08-19T00:46:42;99406.78;;;18.79;100.00
12594;BME280;6362;50.208;9.182;2022-08-19T00:49:19;99402.56;;;18.75;100.00
12594;BME280;6362;50.208;9.182;2022-08-19T00:51:48;99402.69;;;18.70;100.00
12594;BME280;6362;50.208;9.182;2022-08-19T00:54:16;99403.44;;;18.76;100.00
12594;BME280;6362;50.208;9.182;2022-08-19T00:56:42;99407.00;;;18.71;100.00
12594;BME280;6362;50.208;9.182;2022-08-19T00:59:09;99392.47;;;18.67;100.00
12594;BME280;6362;50.208;9.182;2022-08-19T01:01:36;99393.28;;;18.69;100.00
12594;BME280;6362;50.208;9.182;2022-08-19T01:04:02;99379.53;;;18.69;100.00
12594;BME280;6362;50.208;9.182;2022-08-19T01:06:28;99372.50;;;18.72;100.00
12594;BME280;6362;50.208;9.182;2022-08-19T01:08:56;99359.50;;;18.76;100.00
12594;BME280;6362;50.208;9.182;2022-08-19T01:11:22;99363.75;;;18.78;100.00
12594;BME280;6362;50.208;9.182;2022-08-19T01:13:49;99360.22;;;18.81;100.00
12594;BME280;6362;50.208;9.182;2022-08-19T01:16:17;99358.53;;;18.80;100.00
12594;BME280;6362;50.208;9.182;2022-08-19T01:18:44;99362.75;;;18.82;100.00
12594;BME280;6362;50.208;9.182;2022-08-19T01:21:34;99371.16;;;18.89;100.00
12594;BME280;6362;50.208;9.182;2022-08-19T01:24:03;99391.78;;;18.90;100.00
12594;BME280;6362;50.208;9.182;2022-08-19T01:26:29;99390.81;;;18.95;100.00
12594;BME280;6362;50.208;9.182;2022-08-19T01:28:57;99395.28;;;18.89;100.00
12594;BME280;6362;50.208;9.182;2022-08-19T01:31:26;99398.22;;;18.77;100.00
12594;BME280;6362;50.208;9.182;2022-08-19T01:33:55;99397.63;;;18.67;100.00
12594;BME280;6362;50.208;9.182;2022-08-19T01:36:42;99384.19;;;18.56;100.00
12594;BME280;6362;50.208;9.182;2022-08-19T01:39:14;99381.63;;;18.56;100.00
12594;BME280;6362;50.208;9.182;2022-08-19T01:41:40;99375.53;;;18.57;100.00
12594;BME280;6362;50.208;9.182;2022-08-19T01:44:07;99377.25;;;18.58;100.00
12594;BME280;6362;50.208;9.182;2022-08-19T01:46:34;99376.31;;;18.61;100.00
12594;BME280;6362;50.208;9.182;2022-08-19T01:49:00;99378.84;;;18.62;100.00
12594;BME280;6362;50.208;9.182;2022-08-19T01:51:26;99376.22;;;18.64;100.00
12594;BME280;6362;50.208;9.182;2022-08-19T01:53:51;99375.34;;;18.65;100.00
12594;BME280;6362;50.208;9.182;2022-08-19T01:56:18;99362.44;;;18.63;100.00
12594;BME280;6362;50.208;9.182;2022-08-19T01:58:49;99364.91;;;18.68;100.00
12594;BME280;6362;50.208;9.182;2022-08-19T02:01:16;99376.06;;;18.68;100.00
12594;BME280;6362;50.208;9.182;2022-08-19T02:03:42;99375.25;;;18.66;100.00
12594;BME280;6362;50.208;9.182;2022-08-19T02:06:07;99377.94;;;18.63;100.00
12594;BME280;6362;50.208;9.182;2022-08-19T02:08:35;99375.47;;;18.60;100.00
12594;BME280;6362;50.208;9.182;2022-08-19T02:11:02;99377.91;;;18.65;100.00
12594;BME280;6362;50.208;9.182;2022-08-19T02:13:28;99370.75;;;18.73;100.00
12594;BME280;6362;50.208;9.182;2022-08-19T02:15:53;99386.22;;;18.75;100.00
12594;BME280;6362;50.208;9.182;2022-08-19T02:18:19;99390.19;;;18.86;100.00
12594;BME280;6362;50.208;9.182;2022-08-19T02:20:45;99390.50;;;18.76;100.00
12594;BME280;6362;50.208;9.182;2022-08-19T02:23:13;99399.97;;;18.75;100.00
12594;BME280;6362;50.208;9.182;2022-08-19T02:25:39;99401.91;;;18.68;100.00
12594;BME280;6362;50.208;9.182;2022-08-19T02:28:05;99401.06;;;18.68;100.00
12594;BME280;6362;50.208;9.182;2022-08-19T02:30:31;99410.53;;;18.69;100.00
12594;BME280;6362;50.208;9.182;2022-08-19T02:32:56;99405.53;;;18.63;100.00
12594;BME280;6362;50.208;9.182;2022-08-19T02:35:22;99409.22;;;18.54;100.00
12594;BME280;6362;50.208;9.182;2022-08-19T02:37:48;99403.22;;;18.54;100.00
12594;BME280;6362;50.208;9.182;2022-08-19T02:40:32;99398.78;;;18.57;100.00
12594;BME280;6362;50.208;9.182;2022-08-19T02:43:04;99397.81;;;18.61;100.00
12594;BME280;6362;50.208;9.182;2022-08-19T02:45:33;99394.22;;;18.67;100.00
12594;BME280;6362;50.208;9.182;2022-08-19T02:47:59;99401.75;;;18.73;100.00
12594;BME280;6362;50.208;9.182;2022-08-19T02:50:24;99394.78;;;18.77;100.00
12594;BME280;6362;50.208;9.182;2022-08-19T02:52:50;99399.09;;;18.76;100.00
12594;BME280;6362;50.208;9.182;2022-08-19T02:55:16;99402.63;;;18.73;100.00
12594;BME280;6362;50.208;9.182;2022-08-19T02:57:41;99416.31;;;18.77;100.00
12594;BME280;6362;50.208;9.182;2022-08-19T03:00:07;99409.22;;;18.84;100.00
12594;BME280;6362;50.208;9.182;2022-08-19T03:02:34;99411.75;;;18.85;100.00
12594;BME280;6362;50.208;9.182;2022-08-19T03:05:00;99417.13;;;18.79;100.00
12594;BME280;6362;50.208;9.182;2022-08-19T03:07:26;99412.84;;;18.78;100.00
12594;BME280;6362;50.208;9.182;2022-08-19T03:09:52;99408.53;;;18.79;100.00
12594;BME280;6362;50.208;9.182;2022-08-19T03:12:17;99405.00;;;18.81;100.00
12594;BME280;6362;50.208;9.182;2022-08-19T03:14:43;99410.78;;;18.89;100.00
12594;BME280;6362;50.208;9.182;2022-08-19T03:17:09;99417.59;;;18.92;100.00
12594;BME280;6362;50.208;9.182;2022-08-19T03:19:34;99414.22;;;18.90;100.00
12594;BME280;6362;50.208;9.182;2022-08-19T03:22:00;99419.34;;;18.91;100.00
12594;BME280;6362;50.208;9.182;2022-08-19T03:24:25;99422.00;;;18.88;100.00
12594;BME280;6362;50.208;9.182;2022-08-19T03:26:53;99417.75;;;18.87;100.00
12594;BME280;6362;50.208;9.182;2022-08-19T03:29:24;99418.56;;;18.88;100.00
12594;BME280;6362;50.208;9.182;2022-08-19T03:31:49;99429.75;;;18.88;100.00
12594;BME280;6362;50.208;9.182;2022-08-19T03:34:25;99432.41;;;18.87;100.00
12594;BME280;6362;50.208;9.182;2022-08-19T03:36:57;99422.94;;;18.86;100.00
12594;BME280;6362;50.208;9.182;2022-08-19T03:39:25;99424.41;;;18.95;100.00
12594;BME280;6362;50.208;9.182;2022-08-19T03:41:52;99422.81;;;18.90;100.00
12594;BME280;6362;50.208;9.182;2022-08-19T03:44:20;99421.25;;;18.85;100.00
12594;BME280;6362;50.208;9.182;2022-08-19T03:46:50;99413.56;;;18.83;100.00
12594;BME280;6362;50.208;9.182;2022-08-19T03:49:18;99414.34;;;18.85;100.00
12594;BME280;6362;50.208;9.182;2022-08-19T03:51:45;99412.63;;;18.84;100.00
12594;BME280;6362;50.208;9.182;2022-08-19T03:54:13;99422.06;;;18.87;100.00
12594;BME280;6362;50.208;9.182;2022-08-19T03:56:42;99427.34;;;18.82;100.00
12594;BME280;6362;50.208;9.182;2022-08-19T03:59:10;99417.88;;;18.83;100.00
12594;BME280;6362;50.208;9.182;2022-08-19T04:01:36;99419.41;;;18.88;100.00
12594;BME280;6362;50.208;9.182;2022-08-19T04:04:02;99418.53;;;18.89;100.00
12594;BME280;6362;50.208;9.182;2022-08-19T04:06:29;99416.78;;;18.90;100.00
12594;BME280;6362;50.208;9.182;2022-08-19T04:08:57;99423.56;;;18.94;100.00
12594;BME280;6362;50.208;9.182;2022-08-19T04:11:33;99417.53;;;18.93;100.00
12594;BME280;6362;50.208;9.182;2022-08-19T04:13:59;99422.81;;;18.90;100.00
12594;BME280;6362;50.208;9.182;2022-08-19T04:16:26;99417.78;;;18.86;100.00
12594;BME280;6362;50.208;9.182;2022-08-19T04:18:55;99418.75;;;18.82;100.00
12594;BME280;6362;50.208;9.182;2022-08-19T04:21:24;99411.16;;;18.77;100.00
12594;BME280;6362;50.208;9.182;2022-08-19T04:23:51;99418.81;;;18.80;100.00
12594;BME280;6362;50.208;9.182;2022-08-19T04:26:22;99421.25;;;18.85;100.00
12594;BME280;6362;50.208;9.182;2022-08-19T04:28:47;99424.88;;;18.79;100.00
12594;BME280;6362;50.208;9.182;2022-08-19T04:31:20;99417.19;;;18.76;100.00
12594;BME280;6362;50.208;9.182;2022-08-19T04:33:46;99421.44;;;18.79;100.00
12594;BME280;6362;50.208;9.182;2022-08-19T04:36:23;99415.34;;;18.81;100.00
12594;BME280;6362;50.208;9.182;2022-08-19T04:38:53;99420.50;;;18.81;100.00
12594;BME280;6362;50.208;9.182;2022-08-19T04:41:19;99423.13;;;18.80;100.00
12594;BME280;6362;50.208;9.182;2022-08-19T04:44:04;99431.47;;;18.89;100.00
12594;BME280;6362;50.208;9.182;2022-08-19T04:46:31;99426.56;;;19.08;100.00
12594;BME280;6362;50.208;9.182;2022-08-19T04:48:58;99420.63;;;19.05;100.00
12594;BME280;6362;50.208;9.182;2022-08-19T04:51:24;99417.63;;;19.19;100.00
12594;BME280;6362;50.208;9.182;2022-08-19T04:53:50;99417.22;;;19.31;100.00
12594;BME280;6362;50.208;9.182;2022-08-19T04:56:17;99413.47;;;19.40;100.00
12594;BME280;6362;50.208;9.182;2022-08-19T04:58:44;99417.84;;;19.38;100.00
12594;BME280;6362;50.208;9.182;2022-08-19T05:01:29;99420.63;;;19.31;100.00
12594;BME280;6362;50.208;9.182;2022-08-19T05:03:56;99420.63;;;19.31;100.00
12594;BME280;6362;50.208;9.182;2022-08-19T05:06:22;99424.94;;;19.32;100.00
12594;BME280;6362;50.208;9.182;2022-08-19T05:08:49;99433.22;;;19.42;100.00
12594;BME280;6362;50.208;9.182;2022-08-19T05:11:16;99438.53;;;19.38;100.00
12594;BME280;6362;50.208;9.182;2022-08-19T05:13:43;99443.41;;;19.47;100.00
12594;BME280;6362;50.208;9.182;2022-08-19T05:16:12;99443.84;;;19.34;100.00
12594;BME280;6362;50.208;9.182;2022-08-19T05:18:39;99446.31;;;19.38;100.00
12594;BME280;6362;50.208;9.182;2022-08-19T05:21:23;99456.66;;;19.38;100.00
12594;BME280;6362;50.208;9.182;2022-08-19T05:24:07;99451.53;;;19.36;100.00
12594;BME280;6362;50.208;9.182;2022-08-19T05:26:38;99456.25;;;19.23;100.00
12594;BME280;6362;50.208;9.182;2022-08-19T05:29:05;99465.06;;;19.16;100.00
12594;BME280;6362;50.208;9.182;2022-08-19T05:31:31;99464.50;;;19.08;100.00
12594;BME280;6362;50.208;9.182;2022-08-19T05:33:57;99461.91;;;19.08;100.00
12594;BME280;6362;50.208;9.182;2022-08-19T05:36:25;99461.06;;;19.07;100.00
12594;BME280;6362;50.208;9.182;2022-08-19T05:38:50;99466.28;;;19.06;100.00
12594;BME280;6362;50.208;9.182;2022-08-19T05:41:17;99466.13;;;19.10;100.00
12594;BME280;6362;50.208;9.182;2022-08-19T05:43:43;99465.97;;;19.15;100.00
12594;BME280;6362;50.208;9.182;2022-08-19T05:46:16;99466.63;;;19.22;100.00
12594;BME280;6362;50.208;9.182;2022-08-19T05:48:43;99463.94;;;19.25;100.00
12594;BME280;6362;50.208;9.182;2022-08-19T05:51:08;99470.50;;;19.37;100.00
12594;BME280;6362;50.208;9.182;2022-08-19T05:53:34;99464.31;;;19.41;100.00
12594;BME280;6362;50.208;9.182;2022-08-19T05:56:09;99469.28;;;19.47;100.00
12594;BME280;6362;50.208;9.182;2022-08-19T05:58:35;99472.47;;;19.55;100.00
12594;BME280;6362;50.208;9.182;2022-08-19T06:01:03;99474.91;;;19.60;100.00
12594;BME280;6362;50.208;9.182;2022-08-19T06:03:32;99472.91;;;19.68;100.00
12594;BME280;6362;50.208;9.182;2022-08-19T06:05:59;99474.53;;;19.72;100.00
12594;BME280;6362;50.208;9.182;2022-08-19T06:08:26;99479.78;;;19.70;100.00
12594;BME280;6362;50.208;9.182;2022-08-19T06:10:52;99476.97;;;19.76;100.00
12594;BME280;6362;50.208;9.182;2022-08-19T06:13:18;99485.38;;;19.83;100.00
12594;BME280;6362;50.208;9.182;2022-08-19T06:15:45;99498.38;;;19.82;100.00
12594;BME280;6362;50.208;9.182;2022-08-19T06:18:12;99499.00;;;19.88;100.00
12594;BME280;6362;50.208;9.182;2022-08-19T06:20:37;99503.31;;;19.88;100.00
12594;BME280;6362;50.208;9.182;2022-08-19T06:23:03;99510.09;;;19.92;100.00
12594;BME280;6362;50.208;9.182;2022-08-19T06:25:28;99506.41;;;19.99;100.00
12594;BME280;6362;50.208;9.182;2022-08-19T06:27:54;99510.56;;;20.03;100.00
12594;BME280;6362;50.208;9.182;2022-08-19T06:30:19;99525.16;;;20.06;100.00
12594;BME280;6362;50.208;9.182;2022-08-19T06:32:45;99519.25;;;20.02;100.00
12594;BME280;6362;50.208;9.182;2022-08-19T06:35:10;99526.09;;;20.03;100.00
12594;BME280;6362;50.208;9.182;2022-08-19T06:37:37;99527.69;;;20.07;100.00
12594;BME280;6362;50.208;9.182;2022-08-19T06:40:03;99521.56;;;20.10;100.00
12594;BME280;6362;50.208;9.182;2022-08-19T06:42:28;99524.84;;;20.15;100.00
12594;BME280;6362;50.208;9.182;2022-08-19T06:44:54;99535.09;;;20.18;100.00
12594;BME280;6362;50.208;9.182;2022-08-19T06:47:21;99531.56;;;20.21;100.00
12594;BME280;6362;50.208;9.182;2022-08-19T06:49:47;99533.19;;;20.23;100.00
12594;BME280;6362;50.208;9.182;2022-08-19T06:52:12;99534.13;;;20.22;100.00
12594;BME280;6362;50.208;9.182;2022-08-19T06:54:41;99538.19;;;20.29;100.00
12594;BME280;6362;50.208;9.182;2022-08-19T06:57:08;99550.84;;;20.37;100.00
12594;BME280;6362;50.208;9.182;2022-08-19T06:59:39;99555.78;;;20.45;100.00
12594;BME280;6362;50.208;9.182;2022-08-19T07:02:05;99552.28;;;20.46;100.00
12594;BME280;6362;50.208;9.182;2022-08-19T07:04:32;99548.84;;;20.45;100.00
12594;BME280;6362;50.208;9.182;2022-08-19T07:07:10;99548.16;;;20.40;100.00
12594;BME280;6362;50.208;9.182;2022-08-19T07:09:39;99541.31;;;20.37;100.00
12594;BME280;6362;50.208;9.182;2022-08-19T07:12:08;99542.91;;;20.42;100.00
12594;BME280;6362;50.208;9.182;2022-08-19T07:14:35;99543.66;;;20.45;100.00
12594;BME280;6362;50.208;9.182;2022-08-19T07:17:04;99538.09;;;20.56;100.00
12594;BME280;6362;50.208;9.182;2022-08-19T07:19:30;99551.56;;;20.67;100.00
12594;BME280;6362;50.208;9.182;2022-08-19T07:21:56;99552.94;;;20.76;100.00
12594;BME280;6362;50.208;9.182;2022-08-19T07:24:23;99554.53;;;20.80;100.00
12594;BME280;6362;50.208;9.182;2022-08-19T07:26:51;99553.50;;;20.84;100.00
12594;BME280;6362;50.208;9.182;2022-08-19T07:29:18;99548.28;;;20.86;100.00
12594;BME280;6362;50.208;9.182;2022-08-19T07:31:44;99553.34;;;20.89;100.00
12594;BME280;6362;50.208;9.182;2022-08-19T07:34:10;99559.06;;;20.98;100.00
12594;BME280;6362;50.208;9.182;2022-08-19T07:36:39;99559.28;;;20.92;100.00
12594;BME280;6362;50.208;9.182;2022-08-19T07:39:11;99558.44;;;20.92;100.00
12594;BME280;6362;50.208;9.182;2022-08-19T07:41:37;99563.66;;;20.90;100.00
12594;BME280;6362;50.208;9.182;2022-08-19T07:44:04;99565.47;;;20.88;100.00
12594;BME280;6362;50.208;9.182;2022-08-19T07:46:31;99567.88;;;20.93;100.00
12594;BME280;6362;50.208;9.182;2022-08-19T07:48:57;99565.13;;;20.97;100.00
12594;BME280;6362;50.208;9.182;2022-08-19T07:51:23;99564.69;;;21.10;100.00
12594;BME280;6362;50.208;9.182;2022-08-19T07:53:49;99570.06;;;21.27;100.00
12594;BME280;6362;50.208;9.182;2022-08-19T07:56:16;99573.91;;;21.40;100.00
12594;BME280;6362;50.208;9.182;2022-08-19T07:58:44;99571.69;;;21.53;100.00
12594;BME280;6362;50.208;9.182;2022-08-19T08:01:22;99586.50;;;21.72;100.00
12594;BME280;6362;50.208;9.182;2022-08-19T08:03:50;99589.16;;;21.92;100.00
12594;BME280;6362;50.208;9.182;2022-08-19T08:06:34;99587.69;;;22.07;100.00
12594;BME280;6362;50.208;9.182;2022-08-19T08:09:23;99584.81;;;22.13;100.00
12594;BME280;6362;50.208;9.182;2022-08-19T08:11:53;99585.97;;;22.28;100.00
12594;BME280;6362;50.208;9.182;2022-08-19T08:14:23;99582.06;;;22.38;100.00
12594;BME280;6362;50.208;9.182;2022-08-19T08:16:49;99582.31;;;22.53;100.00
12594;BME280;6362;50.208;9.182;2022-08-19T08:19:17;99577.22;;;22.70;100.00
12594;BME280;6362;50.208;9.182;2022-08-19T08:21:42;99583.28;;;22.90;100.00
12594;BME280;6362;50.208;9.182;2022-08-19T08:24:08;99575.38;;;23.12;100.00
12594;BME280;6362;50.208;9.182;2022-08-19T08:26:34;99578.97;;;23.28;100.00
12594;BME280;6362;50.208;9.182;2022-08-19T08:28:59;99573.53;;;23.52;100.00
12594;BME280;6362;50.208;9.182;2022-08-19T08:31:24;99573.78;;;23.64;100.00
12594;BME280;6362;50.208;9.182;2022-08-19T08:33:50;99584.28;;;23.63;100.00
12594;BME280;6362;50.208;9.182;2022-08-19T08:36:16;99576.16;;;23.69;100.00
12594;BME280;6362;50.208;9.182;2022-08-19T08:38:43;99578.56;;;23.74;100.00
12594;BME280;6362;50.208;9.182;2022-08-19T08:44:31;99567.94;;;24.30;94.81
12594;BME280;6362;50.208;9.182;2022-08-19T08:47:03;99564.09;;;24.55;93.74
12594;BME280;6362;50.208;9.182;2022-08-19T08:49:47;99563.69;;;24.63;92.14
12594;BME280;6362;50.208;9.182;2022-08-19T08:52:31;99568.28;;;24.75;91.96
12594;BME280;6362;50.208;9.182;2022-08-19T08:55:05;99574.16;;;24.79;90.88
12594;BME280;6362;50.208;9.182;2022-08-19T09:00:17;99569.69;;;25.30;91.18
12594;BME280;6362;50.208;9.182;2022-08-19T09:02:44;99569.75;;;25.44;87.26
12594;BME280;6362;50.208;9.182;2022-08-19T09:05:11;99567.75;;;25.49;86.60
12594;BME280;6362;50.208;9.182;2022-08-19T09:15:43;99561.56;;;25.50;84.78
12594;BME280;6362;50.208;9.182;2022-08-19T09:18:10;99558.03;;;25.67;83.48
12594;BME280;6362;50.208;9.182;2022-08-19T09:20:36;99561.19;;;25.88;83.17
12594;BME280;6362;50.208;9.182;2022-08-19T09:23:02;99557.91;;;26.15;83.73
12594;BME280;6362;50.208;9.182;2022-08-19T09:25:28;99561.53;;;26.71;80.36
12594;BME280;6362;50.208;9.182;2022-08-19T09:27:56;99554.41;;;26.88;75.86
12594;BME280;6362;50.208;9.182;2022-08-19T09:30:24;99559.59;;;27.16;75.67
12594;BME280;6362;50.208;9.182;2022-08-19T09:32:50;99566.06;;;26.96;77.09
12594;BME280;6362;50.208;9.182;2022-08-19T09:35:18;99557.41;;;26.96;76.59
12594;BME280;6362;50.208;9.182;2022-08-19T09:37:44;99564.41;;;26.81;72.56
12594;BME280;6362;50.208;9.182;2022-08-19T09:40:11;99560.22;;;26.64;75.89
12594;BME280;6362;50.208;9.182;2022-08-19T09:42:37;99568.69;;;26.53;75.68
12594;BME280;6362;50.208;9.182;2022-08-19T09:45:03;99567.09;;;26.51;72.92
12594;BME280;6362;50.208;9.182;2022-08-19T09:47:29;99561.63;;;26.84;70.03
12594;BME280;6362;50.208;9.182;2022-08-19T09:49:55;99556.78;;;27.19;67.23
12594;BME280;6362;50.208;9.182;2022-08-19T09:52:20;99555.25;;;27.44;65.79
12594;BME280;6362;50.208;9.182;2022-08-19T09:54:46;99558.34;;;27.91;64.63
12594;BME280;6362;50.208;9.182;2022-08-19T09:57:11;99556.38;;;28.07;63.18
12594;BME280;6362;50.208;9.182;2022-08-19T09:59:38;99552.59;;;28.11;64.31
12594;BME280;6362;50.208;9.182;2022-08-19T10:02:04;99549.56;;;28.05;63.96
12594;BME280;6362;50.208;9.182;2022-08-19T10:04:29;99548.94;;;28.27;62.01
12594;BME280;6362;50.208;9.182;2022-08-19T10:07:13;99550.00;;;28.50;62.13
12594;BME280;6362;50.208;9.182;2022-08-19T10:09:39;99545.94;;;28.95;59.94
12594;BME280;6362;50.208;9.182;2022-08-19T10:12:07;99552.09;;;29.20;60.44
12594;BME280;6362;50.208;9.182;2022-08-19T10:14:33;99551.72;;;29.37;56.73
12594;BME280;6362;50.208;9.182;2022-08-19T10:16:59;99548.13;;;29.14;56.27
12594;BME280;6362;50.208;9.182;2022-08-19T10:19:26;99540.97;;;28.67;55.11
12594;BME280;6362;50.208;9.182;2022-08-19T10:21:53;99541.09;;;29.02;53.91
12594;BME280;6362;50.208;9.182;2022-08-19T10:24:19;99533.28;;;28.89;53.76
12594;BME280;6362;50.208;9.182;2022-08-19T10:26:45;99538.84;;;28.84;54.39
12594;BME280;6362;50.208;9.182;2022-08-19T10:29:13;99537.63;;;28.64;55.33
12594;BME280;6362;50.208;9.182;2022-08-19T10:31:41;99536.53;;;28.80;55.65
12594;BME280;6362;50.208;9.182;2022-08-19T10:34:07;99529.94;;;28.74;54.35
12594;BME280;6362;50.208;9.182;2022-08-19T10:36:34;99536.28;;;29.09;55.52
12594;BME280;6362;50.208;9.182;2022-08-19T10:39:05;99531.91;;;29.44;59.23
12594;BME280;6362;50.208;9.182;2022-08-19T10:41:35;99527.91;;;29.27;56.84
12594;BME280;6362;50.208;9.182;2022-08-19T10:44:07;99529.63;;;29.16;58.55
12594;BME280;6362;50.208;9.182;2022-08-19T10:46:36;99522.78;;;28.76;59.18
12594;BME280;6362;50.208;9.182;2022-08-19T10:49:03;99507.91;;;28.64;59.27
12594;BME280;6362;50.208;9.182;2022-08-19T10:51:29;99502.03;;;28.60;61.12
12594;BME280;6362;50.208;9.182;2022-08-19T10:54:13;99489.13;;;28.32;52.47
12594;BME280;6362;50.208;9.182;2022-08-19T10:56:39;99501.41;;;28.18;57.57
12594;BME280;6362;50.208;9.182;2022-08-19T10:59:22;99497.97;;;27.92;55.41
12594;BME280;6362;50.208;9.182;2022-08-19T11:01:49;99497.97;;;27.92;55.89
12594;BME280;6362;50.208;9.182;2022-08-19T11:04:15;99488.50;;;28.41;53.72
12594;BME280;6362;50.208;9.182;2022-08-19T11:06:44;99486.09;;;29.24;53.20
12594;BME280;6362;50.208;9.182;2022-08-19T11:09:10;99489.97;;;30.14;47.59
12594;BME280;6362;50.208;9.182;2022-08-19T11:11:37;99483.97;;;30.79;45.00
12594;BME280;6362;50.208;9.182;2022-08-19T11:14:15;99479.81;;;30.88;43.16
12594;BME280;6362;50.208;9.182;2022-08-19T11:16:43;99481.31;;;31.34;40.78
12594;BME280;6362;50.208;9.182;2022-08-19T11:19:11;99488.09;;;31.59;39.79
12594;BME280;6362;50.208;9.182;2022-08-19T11:21:42;99475.75;;;31.90;40.14
12594;BME280;6362;50.208;9.182;2022-08-19T11:24:14;99481.50;;;31.74;40.05
12594;BME280;6362;50.208;9.182;2022-08-19T11:26:40;99480.03;;;32.03;40.02
12594;BME280;6362;50.208;9.182;2022-08-19T11:29:08;99484.16;;;31.95;39.81
12594;BME280;6362;50.208;9.182;2022-08-19T11:31:37;99473.00;;;32.13;38.14
12594;BME280;6362;50.208;9.182;2022-08-19T11:34:06;99470.44;;;32.32;39.04
12594;BME280;6362;50.208;9.182;2022-08-19T11:36:33;99474.22;;;32.40;38.32
12594;BME280;6362;50.208;9.182;2022-08-19T11:38:59;99472.13;;;32.74;39.17
12594;BME280;6362;50.208;9.182;2022-08-19T11:41:24;99466.41;;;32.59;38.63
12594;BME280;6362;50.208;9.182;2022-08-19T11:43:51;99458.25;;;32.72;38.69
12594;BME280;6362;50.208;9.182;2022-08-19T11:46:19;99461.31;;;32.87;37.65
12594;BME280;6362;50.208;9.182;2022-08-19T11:48:44;99460.91;;;32.91;38.76
12594;BME280;6362;50.208;9.182;2022-08-19T11:51:13;99464.13;;;33.34;37.81
12594;BME280;6362;50.208;9.182;2022-08-19T11:53:39;99461.06;;;33.68;36.28
12594;BME280;6362;50.208;9.182;2022-08-19T11:56:06;99459.00;;;33.23;35.69
12594;BME280;6362;50.208;9.182;2022-08-19T11:58:32;99459.28;;;33.20;37.54
12594;BME280;6362;50.208;9.182;2022-08-19T12:00:58;99451.84;;;32.74;37.89
12594;BME280;6362;50.208;9.182;2022-08-19T12:03:24;99447.16;;;31.86;38.98
12594;BME280;6362;50.208;9.182;2022-08-19T12:05:49;99437.91;;;31.49;38.98
12594;BME280;6362;50.208;9.182;2022-08-19T12:08:15;99448.69;;;31.88;41.04
12594;BME280;6362;50.208;9.182;2022-08-19T12:10:42;99446.41;;;32.66;38.14
12594;BME280;6362;50.208;9.182;2022-08-19T12:13:09;99439.13;;;33.28;36.12
12594;BME280;6362;50.208;9.182;2022-08-19T12:15:38;99438.78;;;33.80;34.99
12594;BME280;6362;50.208;9.182;2022-08-19T12:18:06;99438.19;;;33.86;34.60
12594;BME280;6362;50.208;9.182;2022-08-19T12:20:37;99429.06;;;34.46;33.89
12594;BME280;6362;50.208;9.182;2022-08-19T12:23:04;99421.59;;;34.59;34.92
12594;BME280;6362;50.208;9.182;2022-08-19T12:25:30;99417.84;;;34.61;33.63
12594;BME280;6362;50.208;9.182;2022-08-19T12:27:57;99425.59;;;33.61;34.96
12594;BME280;6362;50.208;9.182;2022-08-19T12:30:23;99424.78;;;33.11;35.56
12594;BME280;6362;50.208;9.182;2022-08-19T12:32:49;99429.72;;;32.56;36.79
12594;BME280;6362;50.208;9.182;2022-08-19T12:35:16;99423.63;;;32.65;36.20
12594;BME280;6362;50.208;9.182;2022-08-19T12:37:42;99432.03;;;33.29;34.83
12594;BME280;6362;50.208;9.182;2022-08-19T12:40:10;99424.59;;;33.52;34.96
12594;BME280;6362;50.208;9.182;2022-08-19T12:42:38;99409.31;;;33.36;35.73
12594;BME280;6362;50.208;9.182;2022-08-19T12:45:08;99430.84;;;32.73;35.74
12594;BME280;6362;50.208;9.182;2022-08-19T12:47:34;99427.94;;;32.26;36.87
12594;BME280;6362;50.208;9.182;2022-08-19T12:49:59;99420.06;;;31.84;37.78
12594;BME280;6362;50.208;9.182;2022-08-19T12:52:25;99418.25;;;31.53;38.33
12594;BME280;6362;50.208;9.182;2022-08-19T12:54:53;99412.56;;;31.37;38.92
12594;BME280;6362;50.208;9.182;2022-08-19T12:57:19;99416.59;;;31.20;38.92
12594;BME280;6362;50.208;9.182;2022-08-19T12:59:45;99420.47;;;31.37;37.79
12594;BME280;6362;50.208;9.182;2022-08-19T13:02:10;99420.94;;;31.84;40.49
12594;BME280;6362;50.208;9.182;2022-08-19T13:04:36;99424.44;;;32.56;37.57
12594;BME280;6362;50.208;9.182;2022-08-19T13:07:06;99427.53;;;32.40;36.76
12594;BME280;6362;50.208;9.182;2022-08-19T13:09:33;99429.56;;;32.17;37.84
12594;BME280;6362;50.208;9.182;2022-08-19T13:11:58;99414.06;;;31.51;41.19
12594;BME280;6362;50.208;9.182;2022-08-19T13:14:25;99426.84;;;31.02;40.92
12594;BME280;6362;50.208;9.182;2022-08-19T13:16:51;99426.56;;;30.62;41.16
12594;BME280;6362;50.208;9.182;2022-08-19T13:19:16;99426.59;;;30.17;40.72
12594;BME280;6362;50.208;9.182;2022-08-19T13:21:49;99433.28;;;29.87;42.27